sensor_id;sensor_type;location;lat;lon;timestamp;P1;durP1;ratioP1;P2;durP2;ratioP2
82159;SDS011;71734;50.876;7.372;2024-03-08T00:00:58;21.63;;;9.02;;
82159;SDS011;71734;50.876;7.372;2024-03-08T00:03:25;19.50;;;9.07;;
82159;SDS011;71734;50.876;7.372;2024-03-08T00:05:53;21.45;;;9.60;;
82159;SDS011;71734;50.876;7.372;2024-03-08T00:08:20;19.35;;;8.75;;
82159;SDS011;71734;50.876;7.372;2024-03-08T00:10:46;18.92;;;9.25;;
82159;SDS011;71734;50.876;7.372;2024-03-08T00:13:14;19.45;;;8.88;;
82159;SDS011;71734;50.876;7.372;2024-03-08T00:15:40;18.45;;;8.88;;
82159;SDS011;71734;50.876;7.372;2024-03-08T00:18:07;20.80;;;9.00;;
82159;SDS011;71734;50.876;7.372;2024-03-08T00:20:34;21.20;;;9.77;;
82159;SDS011;71734;50.876;7.372;2024-03-08T00:23:02;19.23;;;9.35;;
82159;SDS011;71734;50.876;7.372;2024-03-08T00:25:28;18.30;;;9.35;;
82159;SDS011;71734;50.876;7.372;2024-03-08T00:27:55;20.02;;;9.32;;
82159;SDS011;71734;50.876;7.372;2024-03-08T00:30:22;19.77;;;8.77;;
82159;SDS011;71734;50.876;7.372;2024-03-08T00:32:50;19.05;;;9.07;;
82159;SDS011;71734;50.876;7.372;2024-03-08T00:35:16;18.13;;;9.20;;
82159;SDS011;71734;50.876;7.372;2024-03-08T00:37:43;20.27;;;9.00;;
82159;SDS011;71734;50.876;7.372;2024-03-08T00:40:13;22.27;;;10.18;;
82159;SDS011;71734;50.876;7.372;2024-03-08T00:42:40;20.33;;;9.35;;
82159;SDS011;71734;50.876;7.372;2024-03-08T00:45:09;18.98;;;8.80;;
82159;SDS011;71734;50.876;7.372;2024-03-08T00:47:36;19.90;;;9.23;;
82159;SDS011;71734;50.876;7.372;2024-03-08T00:50:03;21.30;;;9.57;;
82159;SDS011;71734;50.876;7.372;2024-03-08T00:52:30;20.52;;;10.10;;
82159;SDS011;71734;50.876;7.372;2024-03-08T00:54:56;19.70;;;9.57;;
82159;SDS011;71734;50.876;7.372;2024-03-08T00:57:24;18.98;;;9.15;;
82159;SDS011;71734;50.876;7.372;2024-03-08T00:59:51;17.55;;;9.25;;
82159;SDS011;71734;50.876;7.372;2024-03-08T01:02:17;22.27;;;10.05;;
82159;SDS011;71734;50.876;7.372;2024-03-08T01:04:44;22.35;;;10.32;;
82159;SDS011;71734;50.876;7.372;2024-03-08T01:07:12;20.95;;;9.30;;
82159;SDS011;71734;50.876;7.372;2024-03-08T01:09:38;20.17;;;9.05;;
82159;SDS011;71734;50.876;7.372;2024-03-08T01:12:05;19.13;;;8.75;;
82159;SDS011;71734;50.876;7.372;2024-03-08T01:14:33;20.95;;;9.35;;
82159;SDS011;71734;50.876;7.372;2024-03-08T01:17:00;19.50;;;8.85;;
82159;SDS011;71734;50.876;7.372;2024-03-08T01:19:26;21.48;;;10.25;;
82159;SDS011;71734;50.876;7.372;2024-03-08T01:21:53;21.60;;;9.77;;
82159;SDS011;71734;50.876;7.372;2024-03-08T01:24:21;20.88;;;9.38;;
82159;SDS011;71734;50.876;7.372;2024-03-08T01:26:48;20.55;;;8.85;;
82159;SDS011;71734;50.876;7.372;2024-03-08T01:29:15;20.08;;;9.02;;
82159;SDS011;71734;50.876;7.372;2024-03-08T01:31:43;21.08;;;9.30;;
82159;SDS011;71734;50.876;7.372;2024-03-08T01:34:09;19.95;;;9.07;;
82159;SDS011;71734;50.876;7.372;2024-03-08T01:36:36;20.30;;;9.35;;
82159;SDS011;71734;50.876;7.372;2024-03-08T01:39:03;18.48;;;9.25;;
82159;SDS011;71734;50.876;7.372;2024-03-08T01:41:32;21.27;;;9.20;;
82159;SDS011;71734;50.876;7.372;2024-03-08T01:44:00;22.20;;;9.48;;
82159;SDS011;71734;50.876;7.372;2024-03-08T01:46:27;20.67;;;9.27;;
82159;SDS011;71734;50.876;7.372;2024-03-08T01:48:56;20.55;;;9.75;;
82159;SDS011;71734;50.876;7.372;2024-03-08T01:51:23;19.42;;;9.38;;
82159;SDS011;71734;50.876;7.372;2024-03-08T01:53:49;21.20;;;8.95;;
82159;SDS011;71734;50.876;7.372;2024-03-08T01:56:16;18.92;;;9.48;;
82159;SDS011;71734;50.876;7.372;2024-03-08T01:58:44;20.83;;;9.18;;
82159;SDS011;71734;50.876;7.372;2024-03-08T02:04:27;22.83;;;9.98;;
82159;SDS011;71734;50.876;7.372;2024-03-08T02:06:55;21.73;;;9.65;;
82159;SDS011;71734;50.876;7.372;2024-03-08T02:09:23;20.00;;;9.52;;
82159;SDS011;71734;50.876;7.372;2024-03-08T02:11:49;22.50;;;9.65;;
82159;SDS011;71734;50.876;7.372;2024-03-08T02:14:16;20.67;;;9.82;;
82159;SDS011;71734;50.876;7.372;2024-03-08T02:16:43;21.63;;;9.90;;
82159;SDS011;71734;50.876;7.372;2024-03-08T02:19:10;22.27;;;10.05;;
82159;SDS011;71734;50.876;7.372;2024-03-08T02:21:38;23.70;;;10.38;;
82159;SDS011;71734;50.876;7.372;2024-03-08T02:24:05;19.13;;;9.20;;
82159;SDS011;71734;50.876;7.372;2024-03-08T02:26:32;21.85;;;9.20;;
82159;SDS011;71734;50.876;7.372;2024-03-08T02:28:59;20.92;;;10.20;;
82159;SDS011;71734;50.876;7.372;2024-03-08T02:31:25;22.25;;;9.55;;
82159;SDS011;71734;50.876;7.372;2024-03-08T02:33:52;20.80;;;9.80;;
82159;SDS011;71734;50.876;7.372;2024-03-08T02:36:19;18.70;;;9.32;;
82159;SDS011;71734;50.876;7.372;2024-03-08T02:38:48;22.70;;;9.07;;
82159;SDS011;71734;50.876;7.372;2024-03-08T02:41:14;19.73;;;9.20;;
82159;SDS011;71734;50.876;7.372;2024-03-08T02:43:41;19.50;;;8.75;;
82159;SDS011;71734;50.876;7.372;2024-03-08T02:46:07;20.15;;;8.95;;
82159;SDS011;71734;50.876;7.372;2024-03-08T02:48:35;20.63;;;9.52;;
82159;SDS011;71734;50.876;7.372;2024-03-08T02:51:01;21.95;;;9.30;;
82159;SDS011;71734;50.876;7.372;2024-03-08T02:53:28;21.13;;;9.60;;
82159;SDS011;71734;50.876;7.372;2024-03-08T02:55:56;19.67;;;8.95;;
82159;SDS011;71734;50.876;7.372;2024-03-08T02:58:23;20.00;;;9.20;;
82159;SDS011;71734;50.876;7.372;2024-03-08T03:00:49;20.38;;;9.27;;
82159;SDS011;71734;50.876;7.372;2024-03-08T03:03:16;20.88;;;9.70;;
82159;SDS011;71734;50.876;7.372;2024-03-08T03:05:42;20.40;;;9.27;;
82159;SDS011;71734;50.876;7.372;2024-03-08T03:08:09;19.27;;;8.15;;
82159;SDS011;71734;50.876;7.372;2024-03-08T03:10:36;20.70;;;9.07;;
82159;SDS011;71734;50.876;7.372;2024-03-08T03:13:05;19.98;;;9.35;;
82159;SDS011;71734;50.876;7.372;2024-03-08T03:15:31;20.15;;;9.32;;
82159;SDS011;71734;50.876;7.372;2024-03-08T03:17:58;21.02;;;9.35;;
82159;SDS011;71734;50.876;7.372;2024-03-08T03:20:25;21.08;;;9.68;;
82159;SDS011;71734;50.876;7.372;2024-03-08T03:22:57;17.85;;;8.27;;
82159;SDS011;71734;50.876;7.372;2024-03-08T03:25:26;20.17;;;8.95;;
82159;SDS011;71734;50.876;7.372;2024-03-08T03:27:58;18.98;;;8.48;;
82159;SDS011;71734;50.876;7.372;2024-03-08T03:30:26;20.25;;;8.43;;
82159;SDS011;71734;50.876;7.372;2024-03-08T03:32:56;18.67;;;8.65;;
82159;SDS011;71734;50.876;7.372;2024-03-08T03:35:25;20.15;;;8.65;;
82159;SDS011;71734;50.876;7.372;2024-03-08T03:37:52;20.73;;;9.43;;
82159;SDS011;71734;50.876;7.372;2024-03-08T03:40:30;19.52;;;8.68;;
82159;SDS011;71734;50.876;7.372;2024-03-08T03:42:57;21.30;;;9.45;;
82159;SDS011;71734;50.876;7.372;2024-03-08T03:45:25;21.02;;;9.68;;
82159;SDS011;71734;50.876;7.372;2024-03-08T03:47:52;21.13;;;9.38;;
82159;SDS011;71734;50.876;7.372;2024-03-08T03:50:19;21.13;;;9.38;;
82159;SDS011;71734;50.876;7.372;2024-03-08T03:52:45;20.30;;;8.70;;
82159;SDS011;71734;50.876;7.372;2024-03-08T03:55:12;18.98;;;8.80;;
82159;SDS011;71734;50.876;7.372;2024-03-08T03:57:39;21.85;;;9.27;;
82159;SDS011;71734;50.876;7.372;2024-03-08T04:00:06;21.15;;;9.05;;
82159;SDS011;71734;50.876;7.372;2024-03-08T04:02:40;18.55;;;8.75;;
82159;SDS011;71734;50.876;7.372;2024-03-08T04:05:07;20.80;;;9.23;;
82159;SDS011;71734;50.876;7.372;2024-03-08T04:07:35;19.13;;;8.65;;
82159;SDS011;71734;50.876;7.372;2024-03-08T04:10:01;22.00;;;9.60;;
82159;SDS011;71734;50.876;7.372;2024-03-08T04:12:30;19.38;;;9.40;;
82159;SDS011;71734;50.876;7.372;2024-03-08T04:14:57;24.23;;;9.50;;
82159;SDS011;71734;50.876;7.372;2024-03-08T04:17:23;23.15;;;10.02;;
82159;SDS011;71734;50.876;7.372;2024-03-08T04:19:52;21.45;;;9.30;;
82159;SDS011;71734;50.876;7.372;2024-03-08T04:22:19;22.23;;;9.35;;
82159;SDS011;71734;50.876;7.372;2024-03-08T04:24:46;22.90;;;9.50;;
82159;SDS011;71734;50.876;7.372;2024-03-08T04:27:13;22.73;;;10.65;;
82159;SDS011;71734;50.876;7.372;2024-03-08T04:29:40;22.23;;;9.68;;
82159;SDS011;71734;50.876;7.372;2024-03-08T04:32:07;21.58;;;9.00;;
82159;SDS011;71734;50.876;7.372;2024-03-08T04:34:34;23.83;;;10.43;;
82159;SDS011;71734;50.876;7.372;2024-03-08T04:37:03;23.05;;;10.10;;
82159;SDS011;71734;50.876;7.372;2024-03-08T04:39:30;19.05;;;8.77;;
82159;SDS011;71734;50.876;7.372;2024-03-08T04:41:57;21.17;;;10.02;;
82159;SDS011;71734;50.876;7.372;2024-03-08T04:44:25;20.35;;;9.00;;
82159;SDS011;71734;50.876;7.372;2024-03-08T04:46:52;23.20;;;10.60;;
82159;SDS011;71734;50.876;7.372;2024-03-08T04:49:18;24.60;;;10.57;;
82159;SDS011;71734;50.876;7.372;2024-03-08T04:51:46;23.88;;;9.60;;
82159;SDS011;71734;50.876;7.372;2024-03-08T04:54:14;23.35;;;10.15;;
82159;SDS011;71734;50.876;7.372;2024-03-08T04:56:41;23.42;;;10.52;;
82159;SDS011;71734;50.876;7.372;2024-03-08T04:59:07;22.42;;;9.57;;
82159;SDS011;71734;50.876;7.372;2024-03-08T05:01:34;22.48;;;9.63;;
82159;SDS011;71734;50.876;7.372;2024-03-08T05:04:02;23.92;;;9.43;;
82159;SDS011;71734;50.876;7.372;2024-03-08T05:06:29;23.38;;;9.68;;
82159;SDS011;71734;50.876;7.372;2024-03-08T05:08:56;23.42;;;10.25;;
82159;SDS011;71734;50.876;7.372;2024-03-08T05:11:24;21.77;;;9.80;;
82159;SDS011;71734;50.876;7.372;2024-03-08T05:13:53;25.75;;;10.70;;
82159;SDS011;71734;50.876;7.372;2024-03-08T05:16:20;22.60;;;9.50;;
82159;SDS011;71734;50.876;7.372;2024-03-08T05:18:49;20.98;;;9.48;;
82159;SDS011;71734;50.876;7.372;2024-03-08T05:21:16;24.05;;;9.73;;
82159;SDS011;71734;50.876;7.372;2024-03-08T05:23:45;23.38;;;10.00;;
82159;SDS011;71734;50.876;7.372;2024-03-08T05:26:12;23.00;;;10.13;;
82159;SDS011;71734;50.876;7.372;2024-03-08T05:28:40;24.85;;;9.77;;
82159;SDS011;71734;50.876;7.372;2024-03-08T05:31:07;22.20;;;9.60;;
82159;SDS011;71734;50.876;7.372;2024-03-08T05:33:33;24.90;;;10.43;;
82159;SDS011;71734;50.876;7.372;2024-03-08T05:36:00;18.48;;;9.18;;
82159;SDS011;71734;50.876;7.372;2024-03-08T05:38:27;23.67;;;10.43;;
82159;SDS011;71734;50.876;7.372;2024-03-08T05:40:54;24.90;;;9.70;;
82159;SDS011;71734;50.876;7.372;2024-03-08T05:43:21;25.25;;;10.50;;
82159;SDS011;71734;50.876;7.372;2024-03-08T05:45:49;22.70;;;10.40;;
82159;SDS011;71734;50.876;7.372;2024-03-08T05:48:15;26.30;;;10.27;;
82159;SDS011;71734;50.876;7.372;2024-03-08T05:50:43;21.85;;;10.45;;
82159;SDS011;71734;50.876;7.372;2024-03-08T05:53:10;25.13;;;9.63;;
82159;SDS011;71734;50.876;7.372;2024-03-08T05:55:36;22.05;;;9.65;;
82159;SDS011;71734;50.876;7.372;2024-03-08T05:58:04;23.85;;;9.95;;
82159;SDS011;71734;50.876;7.372;2024-03-08T06:00:32;23.75;;;10.10;;
82159;SDS011;71734;50.876;7.372;2024-03-08T06:03:02;25.45;;;10.48;;
82159;SDS011;71734;50.876;7.372;2024-03-08T06:05:29;24.52;;;9.85;;
82159;SDS011;71734;50.876;7.372;2024-03-08T06:07:56;24.20;;;9.45;;
82159;SDS011;71734;50.876;7.372;2024-03-08T06:10:23;21.70;;;9.43;;
82159;SDS011;71734;50.876;7.372;2024-03-08T06:12:50;23.95;;;10.20;;
82159;SDS011;71734;50.876;7.372;2024-03-08T06:15:16;24.95;;;10.60;;
82159;SDS011;71734;50.876;7.372;2024-03-08T06:17:46;24.35;;;10.48;;
82159;SDS011;71734;50.876;7.372;2024-03-08T06:20:14;22.90;;;10.07;;
82159;SDS011;71734;50.876;7.372;2024-03-08T06:22:41;23.75;;;10.00;;
82159;SDS011;71734;50.876;7.372;2024-03-08T06:25:09;25.27;;;9.90;;
82159;SDS011;71734;50.876;7.372;2024-03-08T06:27:38;25.10;;;9.77;;
82159;SDS011;71734;50.876;7.372;2024-03-08T06:30:06;25.90;;;11.10;;
82159;SDS011;71734;50.876;7.372;2024-03-08T06:32:34;24.55;;;9.88;;
82159;SDS011;71734;50.876;7.372;2024-03-08T06:35:01;27.52;;;10.15;;
82159;SDS011;71734;50.876;7.372;2024-03-08T06:37:56;21.17;;;9.82;;
82159;SDS011;71734;50.876;7.372;2024-03-08T06:40:23;21.83;;;9.38;;
82159;SDS011;71734;50.876;7.372;2024-03-08T06:42:50;23.05;;;9.82;;
82159;SDS011;71734;50.876;7.372;2024-03-08T06:45:17;22.20;;;9.55;;
82159;SDS011;71734;50.876;7.372;2024-03-08T06:47:46;25.15;;;9.88;;
82159;SDS011;71734;50.876;7.372;2024-03-08T06:50:13;23.25;;;10.25;;
82159;SDS011;71734;50.876;7.372;2024-03-08T06:52:42;22.65;;;9.50;;
82159;SDS011;71734;50.876;7.372;2024-03-08T06:55:10;23.48;;;9.73;;
82159;SDS011;71734;50.876;7.372;2024-03-08T06:57:38;24.02;;;9.82;;
82159;SDS011;71734;50.876;7.372;2024-03-08T07:00:05;23.45;;;9.50;;
82159;SDS011;71734;50.876;7.372;2024-03-08T07:02:34;23.45;;;10.07;;
82159;SDS011;71734;50.876;7.372;2024-03-08T07:05:03;26.08;;;10.55;;
82159;SDS011;71734;50.876;7.372;2024-03-08T07:07:39;24.00;;;10.23;;
82159;SDS011;71734;50.876;7.372;2024-03-08T07:10:06;22.95;;;9.60;;
82159;SDS011;71734;50.876;7.372;2024-03-08T07:12:37;27.42;;;10.70;;
82159;SDS011;71734;50.876;7.372;2024-03-08T07:15:05;24.42;;;10.85;;
82159;SDS011;71734;50.876;7.372;2024-03-08T07:17:32;23.83;;;9.82;;
82159;SDS011;71734;50.876;7.372;2024-03-08T07:20:00;24.92;;;10.55;;
82159;SDS011;71734;50.876;7.372;2024-03-08T07:22:32;21.98;;;10.05;;
82159;SDS011;71734;50.876;7.372;2024-03-08T07:24:59;23.17;;;10.02;;
82159;SDS011;71734;50.876;7.372;2024-03-08T07:27:46;22.23;;;9.15;;
82159;SDS011;71734;50.876;7.372;2024-03-08T07:30:13;22.70;;;10.10;;
82159;SDS011;71734;50.876;7.372;2024-03-08T07:33:00;21.33;;;8.90;;
82159;SDS011;71734;50.876;7.372;2024-03-08T07:35:27;21.80;;;9.88;;
82159;SDS011;71734;50.876;7.372;2024-03-08T07:40:49;23.75;;;9.98;;
82159;SDS011;71734;50.876;7.372;2024-03-08T07:43:17;21.13;;;9.60;;
82159;SDS011;71734;50.876;7.372;2024-03-08T07:45:44;24.73;;;10.52;;
82159;SDS011;71734;50.876;7.372;2024-03-08T07:48:11;22.27;;;10.48;;
82159;SDS011;71734;50.876;7.372;2024-03-08T07:50:37;22.15;;;10.00;;
82159;SDS011;71734;50.876;7.372;2024-03-08T07:53:05;22.88;;;9.73;;
82159;SDS011;71734;50.876;7.372;2024-03-08T07:55:32;23.48;;;9.82;;
82159;SDS011;71734;50.876;7.372;2024-03-08T07:58:00;23.90;;;9.70;;
82159;SDS011;71734;50.876;7.372;2024-03-08T08:00:29;22.98;;;10.07;;
82159;SDS011;71734;50.876;7.372;2024-03-08T08:02:58;22.55;;;10.65;;
82159;SDS011;71734;50.876;7.372;2024-03-08T08:05:25;22.75;;;9.77;;
82159;SDS011;71734;50.876;7.372;2024-03-08T08:07:52;23.48;;;10.57;;
82159;SDS011;71734;50.876;7.372;2024-03-08T08:13:05;24.52;;;11.38;;
82159;SDS011;71734;50.876;7.372;2024-03-08T08:15:33;21.08;;;9.82;;
82159;SDS011;71734;50.876;7.372;2024-03-08T08:18:05;22.85;;;10.43;;
82159;SDS011;71734;50.876;7.372;2024-03-08T08:20:32;22.35;;;9.57;;
82159;SDS011;71734;50.876;7.372;2024-03-08T08:22:59;21.85;;;9.90;;
82159;SDS011;71734;50.876;7.372;2024-03-08T08:25:26;22.73;;;9.90;;
82159;SDS011;71734;50.876;7.372;2024-03-08T08:27:52;23.02;;;10.05;;
82159;SDS011;71734;50.876;7.372;2024-03-08T08:30:19;19.50;;;8.98;;
82159;SDS011;71734;50.876;7.372;2024-03-08T08:32:48;21.08;;;10.00;;
82159;SDS011;71734;50.876;7.372;2024-03-08T08:35:25;19.02;;;8.88;;
82159;SDS011;71734;50.876;7.372;2024-03-08T08:37:53;22.15;;;9.88;;
82159;SDS011;71734;50.876;7.372;2024-03-08T08:40:20;23.70;;;10.63;;
82159;SDS011;71734;50.876;7.372;2024-03-08T08:42:50;20.83;;;8.95;;
82159;SDS011;71734;50.876;7.372;2024-03-08T08:45:22;20.92;;;9.77;;
82159;SDS011;71734;50.876;7.372;2024-03-08T08:47:53;22.38;;;10.30;;
82159;SDS011;71734;50.876;7.372;2024-03-08T08:50:20;21.15;;;9.25;;
82159;SDS011;71734;50.876;7.372;2024-03-08T08:52:49;20.15;;;10.20;;
82159;SDS011;71734;50.876;7.372;2024-03-08T08:55:15;20.63;;;9.50;;
82159;SDS011;71734;50.876;7.372;2024-03-08T08:57:46;20.90;;;9.73;;
82159;SDS011;71734;50.876;7.372;2024-03-08T09:00:12;20.65;;;10.13;;
82159;SDS011;71734;50.876;7.372;2024-03-08T09:02:40;19.75;;;9.20;;
82159;SDS011;71734;50.876;7.372;2024-03-08T09:05:09;19.98;;;8.45;;
82159;SDS011;71734;50.876;7.372;2024-03-08T09:07:36;21.33;;;9.40;;
82159;SDS011;71734;50.876;7.372;2024-03-08T09:10:03;20.17;;;9.43;;
82159;SDS011;71734;50.876;7.372;2024-03-08T09:12:30;22.90;;;10.30;;
82159;SDS011;71734;50.876;7.372;2024-03-08T09:14:57;20.73;;;9.07;;
82159;SDS011;71734;50.876;7.372;2024-03-08T09:17:24;18.73;;;9.60;;
82159;SDS011;71734;50.876;7.372;2024-03-08T09:19:51;18.92;;;8.80;;
82159;SDS011;71734;50.876;7.372;2024-03-08T09:22:20;19.63;;;9.55;;
82159;SDS011;71734;50.876;7.372;2024-03-08T09:24:47;18.73;;;8.82;;
82159;SDS011;71734;50.876;7.372;2024-03-08T09:27:14;18.85;;;8.52;;
82159;SDS011;71734;50.876;7.372;2024-03-08T09:29:40;19.48;;;8.45;;
82159;SDS011;71734;50.876;7.372;2024-03-08T09:32:08;19.00;;;8.48;;
82159;SDS011;71734;50.876;7.372;2024-03-08T09:34:36;17.73;;;8.98;;
82159;SDS011;71734;50.876;7.372;2024-03-08T09:37:03;18.30;;;8.65;;
82159;SDS011;71734;50.876;7.372;2024-03-08T09:39:31;18.17;;;8.98;;
82159;SDS011;71734;50.876;7.372;2024-03-08T09:41:58;22.05;;;9.40;;
82159;SDS011;71734;50.876;7.372;2024-03-08T09:44:25;19.35;;;9.30;;
82159;SDS011;71734;50.876;7.372;2024-03-08T09:46:59;22.38;;;9.65;;
82159;SDS011;71734;50.876;7.372;2024-03-08T09:49:27;16.75;;;9.05;;
82159;SDS011;71734;50.876;7.372;2024-03-08T09:52:00;17.90;;;8.55;;
82159;SDS011;71734;50.876;7.372;2024-03-08T09:54:30;18.05;;;9.00;;
82159;SDS011;71734;50.876;7.372;2024-03-08T09:56:58;16.65;;;8.23;;
82159;SDS011;71734;50.876;7.372;2024-03-08T09:59:24;16.80;;;8.25;;
82159;SDS011;71734;50.876;7.372;2024-03-08T10:02:14;16.52;;;8.23;;
82159;SDS011;71734;50.876;7.372;2024-03-08T10:04:41;16.90;;;8.98;;
82159;SDS011;71734;50.876;7.372;2024-03-08T10:07:11;16.83;;;7.15;;
82159;SDS011;71734;50.876;7.372;2024-03-08T10:09:39;15.32;;;7.47;;
82159;SDS011;71734;50.876;7.372;2024-03-08T10:12:07;14.95;;;7.65;;
82159;SDS011;71734;50.876;7.372;2024-03-08T10:14:38;16.45;;;7.72;;
82159;SDS011;71734;50.876;7.372;2024-03-08T10:17:06;14.65;;;6.55;;
82159;SDS011;71734;50.876;7.372;2024-03-08T10:19:32;15.45;;;7.35;;
82159;SDS011;71734;50.876;7.372;2024-03-08T10:21:59;17.95;;;8.38;;
82159;SDS011;71734;50.876;7.372;2024-03-08T10:24:26;16.88;;;8.63;;
82159;SDS011;71734;50.876;7.372;2024-03-08T10:26:55;16.27;;;8.15;;
82159;SDS011;71734;50.876;7.372;2024-03-08T10:29:27;15.35;;;7.40;;
82159;SDS011;71734;50.876;7.372;2024-03-08T10:31:54;15.10;;;7.63;;
82159;SDS011;71734;50.876;7.372;2024-03-08T10:34:22;14.48;;;7.07;;
82159;SDS011;71734;50.876;7.372;2024-03-08T10:36:49;14.70;;;6.70;;
82159;SDS011;71734;50.876;7.372;2024-03-08T10:39:19;14.45;;;7.30;;
82159;SDS011;71734;50.876;7.372;2024-03-08T10:41:50;14.85;;;7.32;;
82159;SDS011;71734;50.876;7.372;2024-03-08T10:44:25;14.70;;;7.47;;
82159;SDS011;71734;50.876;7.372;2024-03-08T10:47:09;14.75;;;7.28;;
82159;SDS011;71734;50.876;7.372;2024-03-08T10:52:16;13.52;;;6.65;;
82159;SDS011;71734;50.876;7.372;2024-03-08T10:54:43;14.40;;;6.55;;
82159;SDS011;71734;50.876;7.372;2024-03-08T10:57:11;13.68;;;6.50;;
82159;SDS011;71734;50.876;7.372;2024-03-08T10:59:40;11.68;;;6.03;;
82159;SDS011;71734;50.876;7.372;2024-03-08T11:02:22;13.80;;;6.63;;
82159;SDS011;71734;50.876;7.372;2024-03-08T11:04:52;13.65;;;6.20;;
82159;SDS011;71734;50.876;7.372;2024-03-08T11:07:21;13.30;;;6.15;;
82159;SDS011;71734;50.876;7.372;2024-03-08T11:09:48;12.27;;;6.25;;
82159;SDS011;71734;50.876;7.372;2024-03-08T11:12:21;12.00;;;6.15;;
82159;SDS011;71734;50.876;7.372;2024-03-08T11:14:52;12.32;;;6.00;;
82159;SDS011;71734;50.876;7.372;2024-03-08T11:17:27;12.68;;;6.38;;
82159;SDS011;71734;50.876;7.372;2024-03-08T11:20:10;12.73;;;6.07;;
82159;SDS011;71734;50.876;7.372;2024-03-08T11:22:41;12.27;;;5.80;;
82159;SDS011;71734;50.876;7.372;2024-03-08T11:28:12;11.18;;;5.45;;
82159;SDS011;71734;50.876;7.372;2024-03-08T11:30:45;13.68;;;6.32;;
82159;SDS011;71734;50.876;7.372;2024-03-08T11:33:13;12.88;;;6.22;;
82159;SDS011;71734;50.876;7.372;2024-03-08T11:35:41;12.55;;;6.10;;
82159;SDS011;71734;50.876;7.372;2024-03-08T11:38:10;13.48;;;6.45;;
82159;SDS011;71734;50.876;7.372;2024-03-08T11:40:39;12.20;;;5.82;;
82159;SDS011;71734;50.876;7.372;2024-03-08T11:43:07;12.32;;;6.22;;
82159;SDS011;71734;50.876;7.372;2024-03-08T11:45:34;11.68;;;5.72;;
82159;SDS011;71734;50.876;7.372;2024-03-08T11:48:04;14.15;;;6.40;;
82159;SDS011;71734;50.876;7.372;2024-03-08T11:50:31;11.40;;;6.05;;
82159;SDS011;71734;50.876;7.372;2024-03-08T11:53:02;12.30;;;6.68;;
82159;SDS011;71734;50.876;7.372;2024-03-08T11:55:29;12.65;;;6.38;;
82159;SDS011;71734;50.876;7.372;2024-03-08T11:58:00;15.93;;;6.72;;
82159;SDS011;71734;50.876;7.372;2024-03-08T12:00:28;13.80;;;6.40;;
82159;SDS011;71734;50.876;7.372;2024-03-08T12:03:05;12.68;;;6.15;;
82159;SDS011;71734;50.876;7.372;2024-03-08T12:05:32;13.27;;;6.45;;
82159;SDS011;71734;50.876;7.372;2024-03-08T12:17:46;12.57;;;6.60;;
82159;SDS011;71734;50.876;7.372;2024-03-08T12:20:19;11.27;;;5.93;;
82159;SDS011;71734;50.876;7.372;2024-03-08T12:22:48;12.40;;;6.00;;
82159;SDS011;71734;50.876;7.372;2024-03-08T12:25:18;13.13;;;6.40;;
82159;SDS011;71734;50.876;7.372;2024-03-08T12:28:06;12.63;;;5.50;;
82159;SDS011;71734;50.876;7.372;2024-03-08T12:33:11;13.98;;;5.75;;
82159;SDS011;71734;50.876;7.372;2024-03-08T12:35:49;12.93;;;6.07;;
82159;SDS011;71734;50.876;7.372;2024-03-08T12:38:44;12.52;;;5.80;;
82159;SDS011;71734;50.876;7.372;2024-03-08T12:41:30;13.05;;;6.25;;
82159;SDS011;71734;50.876;7.372;2024-03-08T12:43:57;13.27;;;6.75;;
82159;SDS011;71734;50.876;7.372;2024-03-08T12:46:24;12.32;;;6.05;;
82159;SDS011;71734;50.876;7.372;2024-03-08T12:48:58;12.77;;;6.25;;
82159;SDS011;71734;50.876;7.372;2024-03-08T12:51:26;12.13;;;6.18;;
82159;SDS011;71734;50.876;7.372;2024-03-08T13:00:16;13.02;;;6.22;;
82159;SDS011;71734;50.876;7.372;2024-03-08T13:06:18;13.88;;;6.70;;
82159;SDS011;71734;50.876;7.372;2024-03-08T13:18:38;12.60;;;5.93;;
82159;SDS011;71734;50.876;7.372;2024-03-08T13:21:08;13.68;;;6.68;;
82159;SDS011;71734;50.876;7.372;2024-03-08T13:30:16;12.80;;;6.28;;
82159;SDS011;71734;50.876;7.372;2024-03-08T13:32:44;13.82;;;6.70;;
82159;SDS011;71734;50.876;7.372;2024-03-08T13:35:11;15.38;;;7.50;;
82159;SDS011;71734;50.876;7.372;2024-03-08T13:37:39;21.85;;;10.38;;
82159;SDS011;71734;50.876;7.372;2024-03-08T13:40:06;14.02;;;7.22;;
82159;SDS011;71734;50.876;7.372;2024-03-08T13:42:36;13.20;;;7.38;;
82159;SDS011;71734;50.876;7.372;2024-03-08T13:45:03;14.82;;;7.72;;
82159;SDS011;71734;50.876;7.372;2024-03-08T13:47:33;14.57;;;7.60;;
82159;SDS011;71734;50.876;7.372;2024-03-08T13:50:00;15.80;;;7.63;;
82159;SDS011;71734;50.876;7.372;2024-03-08T13:52:27;15.40;;;7.47;;
82159;SDS011;71734;50.876;7.372;2024-03-08T13:54:57;16.10;;;8.18;;
82159;SDS011;71734;50.876;7.372;2024-03-08T13:57:24;16.10;;;8.00;;
82159;SDS011;71734;50.876;7.372;2024-03-08T13:59:52;13.73;;;7.70;;
82159;SDS011;71734;50.876;7.372;2024-03-08T14:02:19;14.63;;;6.85;;
82159;SDS011;71734;50.876;7.372;2024-03-08T14:04:49;14.13;;;7.05;;
82159;SDS011;71734;50.876;7.372;2024-03-08T14:07:16;13.80;;;7.25;;
82159;SDS011;71734;50.876;7.372;2024-03-08T14:09:43;13.55;;;7.15;;
82159;SDS011;71734;50.876;7.372;2024-03-08T14:12:09;14.90;;;7.22;;
82159;SDS011;71734;50.876;7.372;2024-03-08T14:14:36;14.98;;;6.63;;
82159;SDS011;71734;50.876;7.372;2024-03-08T14:17:04;13.93;;;6.40;;
82159;SDS011;71734;50.876;7.372;2024-03-08T14:19:36;14.60;;;6.70;;
82159;SDS011;71734;50.876;7.372;2024-03-08T14:22:05;12.90;;;6.43;;
82159;SDS011;71734;50.876;7.372;2024-03-08T14:24:32;13.02;;;6.30;;
82159;SDS011;71734;50.876;7.372;2024-03-08T14:27:00;14.48;;;7.07;;
82159;SDS011;71734;50.876;7.372;2024-03-08T14:29:28;15.80;;;7.32;;
82159;SDS011;71734;50.876;7.372;2024-03-08T14:31:57;15.57;;;7.65;;
82159;SDS011;71734;50.876;7.372;2024-03-08T14:34:31;13.73;;;6.50;;
82159;SDS011;71734;50.876;7.372;2024-03-08T14:36:59;12.52;;;6.22;;
82159;SDS011;71734;50.876;7.372;2024-03-08T14:39:27;14.65;;;6.57;;
82159;SDS011;71734;50.876;7.372;2024-03-08T14:41:59;12.73;;;6.93;;
82159;SDS011;71734;50.876;7.372;2024-03-08T14:44:27;13.15;;;6.32;;
82159;SDS011;71734;50.876;7.372;2024-03-08T14:47:04;13.27;;;6.30;;
82159;SDS011;71734;50.876;7.372;2024-03-08T14:49:31;12.73;;;6.05;;
82159;SDS011;71734;50.876;7.372;2024-03-08T14:52:09;12.95;;;5.88;;
82159;SDS011;71734;50.876;7.372;2024-03-08T14:54:54;12.80;;;5.55;;
82159;SDS011;71734;50.876;7.372;2024-03-08T15:00:29;11.52;;;5.85;;
82159;SDS011;71734;50.876;7.372;2024-03-08T15:03:11;12.85;;;5.60;;
82159;SDS011;71734;50.876;7.372;2024-03-08T15:05:48;13.02;;;6.00;;
82159;SDS011;71734;50.876;7.372;2024-03-08T15:08:25;12.65;;;5.72;;
82159;SDS011;71734;50.876;7.372;2024-03-08T15:11:05;11.77;;;5.80;;
82159;SDS011;71734;50.876;7.372;2024-03-08T15:13:33;12.57;;;5.78;;
82159;SDS011;71734;50.876;7.372;2024-03-08T15:16:20;12.25;;;5.82;;
82159;SDS011;71734;50.876;7.372;2024-03-08T15:18:51;13.68;;;6.40;;
82159;SDS011;71734;50.876;7.372;2024-03-08T15:21:21;11.20;;;5.40;;
82159;SDS011;71734;50.876;7.372;2024-03-08T15:23:52;11.15;;;5.35;;
82159;SDS011;71734;50.876;7.372;2024-03-08T15:28:52;13.38;;;5.70;;
82159;SDS011;71734;50.876;7.372;2024-03-08T15:31:21;12.07;;;5.90;;
82159;SDS011;71734;50.876;7.372;2024-03-08T15:33:51;11.68;;;5.32;;
82159;SDS011;71734;50.876;7.372;2024-03-08T15:36:28;11.60;;;5.25;;
82159;SDS011;71734;50.876;7.372;2024-03-08T15:38:56;13.07;;;5.53;;
82159;SDS011;71734;50.876;7.372;2024-03-08T15:41:25;12.60;;;5.97;;